createdAt,value
2023-04-27T00:02:00.784Z,94366.31
2023-04-27T00:04:28.181Z,94372.31
2023-04-27T00:06:55.874Z,94375.34
2023-04-27T00:09:23.155Z,94374.34
2023-04-27T00:11:50.514Z,94375.41
2023-04-27T00:14:17.674Z,94371.63
2023-04-27T00:16:44.584Z,94367.97
2023-04-27T00:19:11.937Z,94366.41
2023-04-27T00:21:39.118Z,94372.06
2023-04-27T00:24:06.316Z,94361.66
2023-04-27T00:26:33.366Z,94361.75
2023-04-27T00:29:00.465Z,94363.78
2023-04-27T00:31:27.628Z,94361.50
2023-04-27T00:33:54.769Z,94360.22
2023-04-27T00:36:21.888Z,94352.00
2023-04-27T00:38:49.818Z,94354.84
2023-04-27T00:41:16.521Z,94352.34
2023-04-27T00:43:44.257Z,94357.28
2023-04-27T00:46:12.897Z,94366.69
2023-04-27T00:48:41.274Z,94362.56
2023-04-27T00:51:08.091Z,94370.03
2023-04-27T00:53:34.820Z,94364.84
2023-04-27T00:56:01.599Z,94359.66
2023-04-27T00:58:31.188Z,94368.56
2023-04-27T01:00:58.330Z,94363.81
2023-04-27T01:03:25.194Z,94362.00
2023-04-27T01:05:52.642Z,94362.63
2023-04-27T01:08:21.271Z,94363.88
2023-04-27T01:10:47.982Z,94371.22
2023-04-27T01:13:15.522Z,94364.84
2023-04-27T01:15:43.972Z,94365.47
2023-04-27T01:18:10.707Z,94354.63
2023-04-27T01:20:53.067Z,94353.09
2023-04-27T01:23:20.302Z,94355.59
2023-04-27T01:25:47.361Z,94358.72
2023-04-27T01:28:15.397Z,94362.56
2023-04-27T01:30:42.250Z,94370.78
2023-04-27T01:33:09.057Z,94369.88
2023-04-27T01:35:36.261Z,94373.31
2023-04-27T01:38:03.379Z,94372.66
2023-04-27T01:40:30.634Z,94381.06
2023-04-27T01:43:07.236Z,94380.44
2023-04-27T01:45:34.078Z,94381.97
2023-04-27T01:48:01.038Z,94383.84
2023-04-27T01:50:27.946Z,94381.38
2023-04-27T01:52:55.002Z,94380.28
2023-04-27T01:55:22.324Z,94373.91
2023-04-27T01:57:49.493Z,94376.38
2023-04-27T02:00:16.582Z,94367.72
2023-04-27T02:02:43.733Z,94373.44
2023-04-27T02:05:11.140Z,94370.50
2023-04-27T02:07:38.278Z,94370.19
2023-04-27T02:10:05.761Z,94366.47
2023-04-27T02:12:32.528Z,94362.13
2023-04-27T02:15:02.156Z,94367.09
2023-04-27T02:17:29.214Z,94371.56
2023-04-27T02:19:56.366Z,94366.16
2023-04-27T02:22:23.793Z,94370.19
2023-04-27T02:24:50.850Z,94366.28
2023-04-27T02:27:18.976Z,94359.00
2023-04-27T02:29:46.759Z,94367.19
2023-04-27T02:32:14.099Z,94365.78
2023-04-27T02:34:41.317Z,94369.47
2023-04-27T02:37:08.593Z,94367.16
2023-04-27T02:39:35.609Z,94363.13
2023-04-27T02:42:02.713Z,94367.91
2023-04-27T02:44:29.731Z,94369.47
2023-04-27T02:46:56.796Z,94367.03
2023-04-27T02:49:23.648Z,94376.19
2023-04-27T02:51:50.884Z,94373.69
2023-04-27T02:54:17.661Z,94379.25
2023-04-27T02:56:44.810Z,94375.97
2023-04-27T02:59:13.114Z,94380.31
2023-04-27T03:01:41.076Z,94384.91
2023-04-27T03:04:09.070Z,94379.34
2023-04-27T03:06:36.106Z,94384.63
2023-04-27T03:09:06.289Z,94383.94
2023-04-27T03:11:33.037Z,94378.06
2023-04-27T03:13:59.928Z,94389.50
2023-04-27T03:16:27.942Z,94380.41
2023-04-27T03:18:54.862Z,94380.69
2023-04-27T03:21:21.919Z,94388.16
2023-04-27T03:23:48.799Z,94388.75
2023-04-27T03:26:16.027Z,94388.78
2023-04-27T03:28:43.985Z,94389.09
2023-04-27T03:31:12.079Z,94390.50
2023-04-27T03:33:38.915Z,94389.31
2023-04-27T03:36:07.129Z,94394.13
2023-04-27T03:38:34.562Z,94398.44
2023-04-27T03:41:01.583Z,94388.63
2023-04-27T03:43:28.404Z,94387.31
2023-04-27T03:45:55.509Z,94391.63
2023-04-27T03:48:22.845Z,94389.63
2023-04-27T03:50:49.763Z,94394.75
2023-04-27T03:53:16.508Z,94388.03
2023-04-27T03:55:43.773Z,94386.31
2023-04-27T03:58:10.599Z,94390.03
2023-04-27T04:00:51.520Z,94392.81
2023-04-27T04:03:18.936Z,94388.19
2023-04-27T04:05:45.974Z,94391.91
2023-04-27T04:08:14.040Z,94393.56
2023-04-27T04:10:40.818Z,94391.91
2023-04-27T04:13:07.957Z,94398.13
2023-04-27T04:15:34.734Z,94388.53
2023-04-27T04:18:01.738Z,94387.31
2023-04-27T04:20:28.623Z,94390.72
2023-04-27T04:23:03.584Z,94389.66
2023-04-27T04:25:33.505Z,94393.69
2023-04-27T04:28:00.933Z,94396.28
2023-04-27T04:30:28.182Z,94397.59
2023-04-27T04:32:56.561Z,94387.47
2023-04-27T04:35:23.360Z,94390.56
2023-04-27T04:37:50.798Z,94383.03
2023-04-27T04:40:18.140Z,94383.34
2023-04-27T04:42:50.923Z,94383.00
2023-04-27T04:45:17.966Z,94387.00
2023-04-27T04:47:44.748Z,94392.00
2023-04-27T04:50:11.475Z,94380.09
2023-04-27T04:52:38.218Z,94386.44
2023-04-27T04:55:05.565Z,94387.75
2023-04-27T04:57:32.629Z,94384.25
2023-04-27T04:59:59.572Z,94388.88
2023-04-27T05:02:27.208Z,94382.50
2023-04-27T05:04:55.108Z,94384.97
2023-04-27T05:07:24.743Z,94375.53
2023-04-27T05:09:52.849Z,94389.47
2023-04-27T05:12:19.592Z,94378.66
2023-04-27T05:14:46.714Z,94390.75
2023-04-27T05:17:13.614Z,94392.19
2023-04-27T05:19:40.628Z,94394.81
2023-04-27T05:22:07.677Z,94402.78
2023-04-27T05:24:34.401Z,94401.84
2023-04-27T05:27:02.475Z,94408.56
2023-04-27T05:29:29.364Z,94401.41
2023-04-27T05:31:56.162Z,94398.72
2023-04-27T05:34:23.107Z,94394.50
2023-04-27T05:36:49.982Z,94405.19
2023-04-27T05:39:17.224Z,94408.84
2023-04-27T05:41:43.985Z,94405.50
2023-04-27T05:44:11.170Z,94406.88
2023-04-27T05:46:39.065Z,94411.97
2023-04-27T05:49:06.220Z,94410.13
2023-04-27T05:51:33.407Z,94409.31
2023-04-27T05:54:00.138Z,94405.56
2023-04-27T05:56:26.902Z,94400.34
2023-04-27T05:58:55.094Z,94410.28
2023-04-27T06:01:21.831Z,94407.38
2023-04-27T06:03:48.652Z,94408.94
2023-04-27T06:07:08.004Z,94411.19
2023-04-27T06:09:34.982Z,94418.34
2023-04-27T06:12:33.174Z,94422.88
2023-04-27T06:15:00.218Z,94421.50
2023-04-27T06:17:27.346Z,94429.81
2023-04-27T06:19:54.239Z,94431.09
2023-04-27T06:22:20.937Z,94434.19
2023-04-27T06:24:47.899Z,94434.22
2023-04-27T06:27:14.784Z,94436.91
2023-04-27T06:29:41.595Z,94438.00
2023-04-27T06:32:09.849Z,94436.69
2023-04-27T06:34:36.634Z,94440.00
2023-04-27T06:37:03.661Z,94440.47
2023-04-27T06:39:31.694Z,94430.63
2023-04-27T06:41:58.433Z,94437.16
2023-04-27T06:44:25.257Z,94436.53
2023-04-27T06:46:52.087Z,94435.00
2023-04-27T06:49:18.838Z,94429.72
2023-04-27T06:51:45.651Z,94437.06
2023-04-27T06:54:12.751Z,94424.66
2023-04-27T06:56:39.454Z,94419.44
2023-04-27T06:59:08.567Z,94424.16
2023-04-27T07:01:36.356Z,94417.03
2023-04-27T07:04:05.440Z,94425.22
2023-04-27T07:06:35.179Z,94427.31
2023-04-27T07:09:03.406Z,94429.34
2023-04-27T07:11:33.841Z,94428.34
2023-04-27T07:14:00.509Z,94431.69
2023-04-27T07:16:27.514Z,94432.41
2023-04-27T07:18:54.348Z,94428.09
2023-04-27T07:21:21.353Z,94430.94
2023-04-27T07:23:48.216Z,94434.22
2023-04-27T07:26:15.640Z,94430.91
2023-04-27T07:28:43.154Z,94429.91
2023-04-27T07:31:12.983Z,94423.19
2023-04-27T07:33:41.066Z,94425.28
2023-04-27T07:36:07.956Z,94415.56
2023-04-27T07:38:35.519Z,94417.25
2023-04-27T07:41:02.678Z,94414.69
2023-04-27T07:43:31.397Z,94418.00
2023-04-27T07:45:58.484Z,94416.78
2023-04-27T07:48:26.075Z,94414.16
2023-04-27T07:50:54.550Z,94407.75
2023-04-27T07:53:21.336Z,94401.34
2023-04-27T07:55:48.034Z,94418.78
2023-04-27T07:58:17.522Z,94405.72
2023-04-27T08:00:45.406Z,94403.94
2023-04-27T08:03:12.966Z,94402.63
2023-04-27T08:05:40.477Z,94413.31
2023-04-27T08:08:07.544Z,94408.31
2023-04-27T08:10:36.792Z,94402.31
2023-04-27T08:13:03.562Z,94414.59
2023-04-27T08:15:30.789Z,94413.38
2023-04-27T08:17:57.783Z,94414.50
2023-04-27T08:20:25.011Z,94415.50
2023-04-27T08:22:54.632Z,94417.03
2023-04-27T08:25:22.377Z,94412.31
2023-04-27T08:27:49.452Z,94403.41
2023-04-27T08:30:17.527Z,94405.28
2023-04-27T08:32:47.194Z,94394.50
2023-04-27T08:35:14.028Z,94385.78
2023-04-27T08:37:41.138Z,94393.88
2023-04-27T08:40:09.784Z,94391.16
2023-04-27T08:42:36.839Z,94397.34
2023-04-27T08:45:06.541Z,94392.84
2023-04-27T08:47:42.666Z,94398.88
2023-04-27T08:50:11.642Z,94399.91
2023-04-27T08:52:39.111Z,94401.31
2023-04-27T08:55:07.813Z,94401.88
2023-04-27T08:57:35.051Z,94395.97
2023-04-27T09:00:02.840Z,94399.16
2023-04-27T09:02:29.967Z,94393.06
2023-04-27T09:04:57.684Z,94395.50
2023-04-27T09:07:26.225Z,94394.53
2023-04-27T09:10:02.653Z,94397.88
2023-04-27T09:12:29.763Z,94396.16
2023-04-27T09:14:57.942Z,94394.78
2023-04-27T09:17:25.862Z,94401.66
2023-04-27T09:20:04.167Z,94407.69
2023-04-27T09:22:31.254Z,94401.31
2023-04-27T09:25:00.939Z,94399.88
2023-04-27T09:27:28.739Z,94398.75
2023-04-27T09:29:55.729Z,94387.03
2023-04-27T09:32:22.793Z,94394.44
2023-04-27T09:34:49.880Z,94395.06
2023-04-27T09:37:17.153Z,94392.09
2023-04-27T09:39:44.554Z,94387.41
2023-04-27T09:42:12.716Z,94371.22
2023-04-27T09:44:39.972Z,94379.03
2023-04-27T09:47:06.701Z,94388.06
2023-04-27T09:49:33.824Z,94387.06
2023-04-27T09:52:00.884Z,94400.16
2023-04-27T09:54:27.970Z,94398.03
2023-04-27T09:57:12.842Z,94389.56
2023-04-27T10:00:08.684Z,94387.72
2023-04-27T10:02:54.450Z,94378.53
2023-04-27T10:05:41.098Z,94371.72
2023-04-27T10:08:08.332Z,94372.03
2023-04-27T10:10:48.540Z,94376.78
2023-04-27T10:13:23.730Z,94361.34
2023-04-27T10:15:50.636Z,94364.03
2023-04-27T10:18:27.963Z,94363.34
2023-04-27T10:20:55.046Z,94365.25
2023-04-27T10:23:25.946Z,94363.19
2023-04-27T10:25:54.146Z,94369.53
2023-04-27T10:28:21.242Z,94356.34
2023-04-27T10:30:48.038Z,94357.59
2023-04-27T10:33:19.992Z,94355.75
2023-04-27T10:35:57.450Z,94357.56
2023-04-27T10:38:28.932Z,94361.13
2023-04-27T10:41:54.534Z,94358.44
2023-04-27T10:44:48.135Z,94354.28
2023-04-27T10:47:16.399Z,94355.91
2023-04-27T10:49:43.636Z,94351.97
2023-04-27T10:52:10.441Z,94353.94
2023-04-27T10:54:38.564Z,94347.59
2023-04-27T10:57:10.093Z,94338.38
2023-04-27T10:59:51.439Z,94345.38
2023-04-27T11:02:24.656Z,94350.97
2023-04-27T11:04:52.202Z,94343.66
2023-04-27T11:07:26.058Z,94348.91
2023-04-27T11:09:53.635Z,94351.59
2023-04-27T11:12:20.415Z,94352.63
2023-04-27T11:14:47.503Z,94348.78
2023-04-27T11:17:15.254Z,94350.22
2023-04-27T11:19:48.942Z,94349.66
2023-04-27T11:22:16.407Z,94348.56
2023-04-27T11:24:50.423Z,94337.50
2023-04-27T11:27:17.919Z,94346.78
2023-04-27T11:29:44.784Z,94337.34
2023-04-27T11:32:22.461Z,94336.72
2023-04-27T11:34:53.615Z,94332.81
2023-04-27T11:37:25.826Z,94331.16
2023-04-27T11:39:53.306Z,94330.59
2023-04-27T11:42:25.508Z,94331.13
2023-04-27T11:44:52.846Z,94332.44
2023-04-27T11:47:19.634Z,94326.72
2023-04-27T11:49:48.130Z,94326.25
2023-04-27T11:52:16.679Z,94328.16
2023-04-27T11:55:09.156Z,94327.03
2023-04-27T11:57:36.130Z,94330.16
2023-04-27T12:00:05.749Z,94332.63
2023-04-27T12:02:33.874Z,94336.41
2023-04-27T12:05:01.084Z,94327.72
2023-04-27T12:07:28.468Z,94332.47
2023-04-27T12:09:57.530Z,94335.25
2023-04-27T12:12:25.158Z,94327.88
2023-04-27T12:14:53.066Z,94332.97
2023-04-27T12:17:27.196Z,94328.09
2023-04-27T12:19:54.237Z,94327.63
2023-04-27T12:22:21.273Z,94327.50
2023-04-27T12:24:50.207Z,94323.75
2023-04-27T12:27:16.901Z,94323.91
2023-04-27T12:29:43.696Z,94322.47
2023-04-27T12:32:10.903Z,94323.66
2023-04-27T12:34:38.161Z,94325.22
2023-04-27T12:37:05.560Z,94313.28
2023-04-27T12:39:32.687Z,94319.16
2023-04-27T12:41:59.378Z,94322.13
2023-04-27T12:44:26.143Z,94320.63
2023-04-27T12:46:53.050Z,94323.91
2023-04-27T12:49:21.284Z,94321.47
2023-04-27T12:51:49.597Z,94324.63
2023-04-27T12:54:16.979Z,94324.09
2023-04-27T12:56:44.274Z,94312.91
2023-04-27T12:59:11.798Z,94325.53
2023-04-27T13:01:38.549Z,94324.13
2023-04-27T13:04:07.056Z,94320.06
2023-04-27T13:06:34.375Z,94317.25
2023-04-27T13:09:01.123Z,94322.69
2023-04-27T13:11:27.898Z,94314.63
2023-04-27T13:13:55.054Z,94318.72
2023-04-27T13:16:21.910Z,94315.03
2023-04-27T13:18:50.836Z,94313.19
2023-04-27T13:21:17.723Z,94308.22
2023-04-27T13:23:45.459Z,94313.19
2023-04-27T13:26:13.839Z,94315.06
2023-04-27T13:28:42.571Z,94318.28
2023-04-27T13:31:09.450Z,94312.41
2023-04-27T13:33:41.344Z,94317.22
2023-04-27T13:36:11.631Z,94303.63
2023-04-27T13:38:38.406Z,94303.06
2023-04-27T13:41:13.999Z,94302.81
2023-04-27T13:43:40.757Z,94299.03
2023-04-27T13:46:07.861Z,94303.38
2023-04-27T13:48:35.018Z,94300.88
2023-04-27T13:51:02.819Z,94300.53
2023-04-27T13:53:32.310Z,94301.81
2023-04-27T13:55:59.308Z,94298.78
2023-04-27T13:58:27.512Z,94304.09
2023-04-27T14:00:54.941Z,94301.66
2023-04-27T14:03:22.229Z,94300.50
2023-04-27T14:05:49.401Z,94301.66
2023-04-27T14:08:16.408Z,94301.75
2023-04-27T14:10:47.075Z,94295.00
2023-04-27T14:13:13.904Z,94300.63
2023-04-27T14:15:41.243Z,94303.59
2023-04-27T14:18:08.513Z,94296.75
2023-04-27T14:20:37.011Z,94291.38
2023-04-27T14:23:05.005Z,94290.66
2023-04-27T14:25:31.875Z,94292.78
2023-04-27T14:28:02.168Z,94286.75
2023-04-27T14:30:32.411Z,94287.53
2023-04-27T14:33:00.214Z,94292.41
2023-04-27T14:35:28.623Z,94290.47
2023-04-27T14:37:55.366Z,94290.97
2023-04-27T14:40:22.304Z,94294.50
2023-04-27T14:42:51.756Z,94296.22
2023-04-27T14:45:24.155Z,94287.97
2023-04-27T14:47:52.399Z,94290.94
2023-04-27T14:50:20.217Z,94288.94
2023-04-27T14:52:50.072Z,94299.44
2023-04-27T14:55:19.698Z,94286.78
2023-04-27T14:57:47.257Z,94282.44
2023-04-27T15:00:16.976Z,94289.03
2023-04-27T15:02:45.000Z,94282.84
2023-04-27T15:05:12.126Z,94282.59
2023-04-27T15:07:40.157Z,94285.75
2023-04-27T15:10:07.556Z,94281.69
2023-04-27T15:12:34.651Z,94282.19
2023-04-27T15:15:02.249Z,94282.09
2023-04-27T15:17:30.773Z,94281.69
2023-04-27T15:19:57.522Z,94287.03
2023-04-27T15:22:26.050Z,94285.66
2023-04-27T15:24:54.715Z,94294.09
2023-04-27T15:27:22.475Z,94291.03
2023-04-27T15:29:50.284Z,94286.50
2023-04-27T15:32:19.515Z,94284.69
2023-04-27T15:34:48.711Z,94286.50
2023-04-27T15:37:17.122Z,94286.81
2023-04-27T15:39:49.692Z,94278.69
2023-04-27T15:44:58.312Z,94275.91
2023-04-27T15:47:26.860Z,94275.94
2023-04-27T15:49:57.900Z,94260.88
2023-04-27T15:52:26.302Z,94267.81
2023-04-27T15:54:53.687Z,94264.31
2023-04-27T15:57:20.479Z,94255.28
2023-04-27T15:59:51.071Z,94253.06
2023-04-27T16:02:18.265Z,94249.22
2023-04-27T16:04:45.133Z,94246.72
2023-04-27T16:07:12.864Z,94256.66
2023-04-27T16:09:40.005Z,94249.34
2023-04-27T16:12:09.777Z,94254.38
2023-04-27T16:14:36.802Z,94260.75
2023-04-27T16:17:03.478Z,94245.16
2023-04-27T16:19:30.316Z,94254.31
2023-04-27T16:21:57.171Z,94252.66
2023-04-27T16:24:25.745Z,94240.63
2023-04-27T16:26:54.484Z,94238.09
2023-04-27T16:29:21.986Z,94242.66
2023-04-27T16:31:57.852Z,94231.81
2023-04-27T16:34:25.085Z,94234.09
2023-04-27T16:36:52.069Z,94227.41
2023-04-27T16:39:20.250Z,94226.53
2023-04-27T16:41:48.487Z,94229.97
2023-04-27T16:44:16.078Z,94232.31
2023-04-27T16:46:43.399Z,94234.69
2023-04-27T16:49:10.404Z,94234.59
2023-04-27T16:51:37.541Z,94239.06
2023-04-27T16:54:04.649Z,94245.06
2023-04-27T16:59:49.307Z,94243.66
2023-04-27T17:02:24.672Z,94230.16
2023-04-27T17:04:53.836Z,94228.59
2023-04-27T17:07:21.146Z,94229.56
2023-04-27T17:09:48.207Z,94234.69
2023-04-27T17:12:15.343Z,94236.44
2023-04-27T17:14:42.474Z,94237.56
2023-04-27T17:17:09.959Z,94233.78
2023-04-27T17:19:36.984Z,94249.22
2023-04-27T17:22:05.070Z,94241.94
2023-04-27T17:24:32.651Z,94254.34
2023-04-27T17:26:59.681Z,94254.31
2023-04-27T17:29:26.919Z,94253.69
2023-04-27T17:31:54.033Z,94247.56
2023-04-27T17:34:20.759Z,94248.97
2023-04-27T17:36:47.774Z,94250.13
2023-04-27T17:39:15.179Z,94235.59
2023-04-27T17:41:42.251Z,94237.56
2023-04-27T17:44:11.711Z,94237.75
2023-04-27T17:46:41.484Z,94242.69
2023-04-27T17:49:08.554Z,94235.22
2023-04-27T17:51:35.554Z,94238.09
2023-04-27T17:54:02.525Z,94241.63
2023-04-27T17:56:29.486Z,94246.03
2023-04-27T17:58:56.677Z,94252.00
2023-04-27T18:01:24.541Z,94245.34
2023-04-27T18:03:52.051Z,94243.91
2023-04-27T18:06:19.126Z,94259.66
2023-04-27T18:08:45.992Z,94256.59
2023-04-27T18:11:13.038Z,94254.44
2023-04-27T18:13:39.985Z,94262.31
2023-04-27T18:16:07.146Z,94261.38
2023-04-27T18:18:34.106Z,94258.38
2023-04-27T18:21:00.833Z,94257.25
2023-04-27T18:23:27.513Z,94263.03
2023-04-27T18:25:58.860Z,94270.72
2023-04-27T18:28:25.568Z,94269.06
2023-04-27T18:30:53.060Z,94264.03
2023-04-27T18:33:19.746Z,94261.66
2023-04-27T18:35:46.630Z,94262.41
2023-04-27T18:38:13.374Z,94264.78
2023-04-27T18:40:42.941Z,94272.56
2023-04-27T18:43:12.484Z,94261.97
2023-04-27T18:45:40.388Z,94271.25
2023-04-27T18:48:08.421Z,94262.19
2023-04-27T18:53:26.667Z,94269.38
2023-04-27T18:56:26.656Z,94273.03
2023-04-27T18:59:01.431Z,94269.34
2023-04-27T19:01:39.016Z,94275.63
2023-04-27T19:04:08.729Z,94266.41
2023-04-27T19:06:36.966Z,94272.72
2023-04-27T19:09:05.023Z,94274.75
2023-04-27T19:11:31.744Z,94266.63
2023-04-27T19:13:59.914Z,94281.16
2023-04-27T19:16:27.822Z,94284.97
2023-04-27T19:22:18.417Z,94290.50
2023-04-27T19:24:45.746Z,94281.03
2023-04-27T19:27:13.942Z,94288.03
2023-04-27T19:29:54.606Z,94291.63
2023-04-27T19:32:21.992Z,94294.44
2023-04-27T19:34:50.583Z,94290.34
2023-04-27T19:37:19.436Z,94293.69
2023-04-27T19:39:46.155Z,94296.50
2023-04-27T19:42:15.944Z,94293.44
2023-04-27T19:44:43.814Z,94302.16
2023-04-27T19:47:10.484Z,94302.16
2023-04-27T19:49:38.291Z,94296.25
2023-04-27T19:52:06.359Z,94296.75
2023-04-27T19:54:35.508Z,94302.88
2023-04-27T19:57:03.651Z,94311.84
2023-04-27T19:59:30.328Z,94318.63
2023-04-27T20:01:58.092Z,94322.44
2023-04-27T20:04:25.528Z,94314.69
2023-04-27T20:06:52.705Z,94307.25
2023-04-27T20:09:19.707Z,94312.16
2023-04-27T20:11:47.867Z,94322.41
2023-04-27T20:14:14.942Z,94320.59
2023-04-27T20:16:42.893Z,94316.72
2023-04-27T20:19:09.842Z,94320.84
2023-04-27T20:21:36.815Z,94328.28
2023-04-27T20:24:03.750Z,94336.53
2023-04-27T20:26:30.777Z,94331.97
2023-04-27T20:28:57.573Z,94329.81
2023-04-27T20:31:27.227Z,94330.59
2023-04-27T20:33:57.333Z,94331.09
2023-04-27T20:36:25.811Z,94335.72
2023-04-27T20:38:52.695Z,94333.03
2023-04-27T20:41:20.355Z,94334.41
2023-04-27T20:43:47.053Z,94331.34
2023-04-27T20:46:14.300Z,94336.97
2023-04-27T20:48:42.133Z,94337.91
2023-04-27T20:51:08.889Z,94335.03
2023-04-27T20:53:35.886Z,94329.66
2023-04-27T20:56:03.087Z,94322.34
2023-04-27T20:58:30.262Z,94322.13
2023-04-27T21:00:57.538Z,94327.81
2023-04-27T21:03:24.918Z,94325.28
2023-04-27T21:05:53.457Z,94335.72
2023-04-27T21:08:20.266Z,94327.78
2023-04-27T21:10:47.006Z,94334.66
2023-04-27T21:13:14.800Z,94330.38
2023-04-27T21:15:41.845Z,94335.88
2023-04-27T21:18:16.029Z,94325.34
2023-04-27T21:20:49.823Z,94320.94
2023-04-27T21:23:17.046Z,94331.34
2023-04-27T21:25:45.040Z,94324.84
2023-04-27T21:28:11.794Z,94326.63
2023-04-27T21:30:38.709Z,94314.25
2023-04-27T21:33:05.878Z,94311.72
2023-04-27T21:35:32.635Z,94310.19
2023-04-27T21:38:00.626Z,94308.59
2023-04-27T21:40:27.508Z,94315.28
2023-04-27T21:42:54.215Z,94307.34
2023-04-27T21:45:22.436Z,94304.75
2023-04-27T21:47:49.261Z,94311.13
2023-04-27T21:50:16.165Z,94304.00
2023-04-27T21:52:44.695Z,94306.13
2023-04-27T21:55:12.113Z,94308.53
2023-04-27T21:57:38.956Z,94308.31
2023-04-27T22:00:07.447Z,94302.31
2023-04-27T22:02:34.446Z,94299.34
2023-04-27T22:05:01.575Z,94306.97
2023-04-27T22:07:28.528Z,94305.28
2023-04-27T22:09:55.926Z,94306.38
2023-04-27T22:12:24.145Z,94295.66
2023-04-27T22:14:51.154Z,94306.81
2023-04-27T22:17:18.976Z,94311.84
2023-04-27T22:19:45.862Z,94311.00
2023-04-27T22:22:12.708Z,94311.16
2023-04-27T22:24:39.702Z,94316.44
2023-04-27T22:27:07.903Z,94316.22
2023-04-27T22:29:35.021Z,94323.81
2023-04-27T22:32:02.293Z,94313.16
2023-04-27T22:34:29.408Z,94316.28
2023-04-27T22:36:57.683Z,94311.94
2023-04-27T22:39:25.177Z,94323.78
2023-04-27T22:41:51.933Z,94322.78
2023-04-27T22:44:18.987Z,94317.59
2023-04-27T22:46:45.897Z,94316.94
2023-04-27T22:49:12.875Z,94312.28
2023-04-27T22:51:40.873Z,94305.97
2023-04-27T22:54:09.024Z,94313.28
2023-04-27T22:56:37.192Z,94322.50
2023-04-27T22:59:03.910Z,94326.34
2023-04-27T23:01:32.228Z,94317.56
2023-04-27T23:03:59.318Z,94321.78
2023-04-27T23:06:26.203Z,94321.91
2023-04-27T23:08:53.880Z,94313.72
2023-04-27T23:11:20.649Z,94316.75
2023-04-27T23:13:47.942Z,94317.09
2023-04-27T23:16:15.041Z,94314.81
2023-04-27T23:18:42.325Z,94316.78
2023-04-27T23:21:10.311Z,94316.56
2023-04-27T23:23:37.142Z,94316.66
2023-04-27T23:26:04.000Z,94319.25
2023-04-27T23:28:30.879Z,94321.63
2023-04-27T23:30:58.189Z,94324.00
2023-04-27T23:33:25.476Z,94313.84
2023-04-27T23:35:52.183Z,94316.97
2023-04-27T23:38:19.311Z,94305.19
2023-04-27T23:40:46.804Z,94311.31
2023-04-27T23:43:13.740Z,94308.06
2023-04-27T23:45:41.763Z,94310.09
2023-04-27T23:48:09.117Z,94308.09
2023-04-27T23:50:36.253Z,94316.66
2023-04-27T23:53:03.220Z,94314.28
2023-04-27T23:55:30.750Z,94311.69
2023-04-27T23:57:58.812Z,94315.09
